Time,TemperatureF,DewpointF,PressureIn,WindDirection,WindDirectionDegrees,WindSpeedMPH,WindSpeedGustMPH,Humidity,HourlyPrecipIn,Conditions,Clouds,dailyrainin,SoftwareType,DateUTC
2017-05-25 00:03:00,60.6,57.0,30.28,West,270,0.0,0.0,88,0.00,,,0.00,meteohub,2017-05-24 23:03:00,
2017-05-25 00:08:00,60.4,56.8,30.28,West,270,0.0,0.0,88,0.00,,,0.00,meteohub,2017-05-24 23:08:00,
2017-05-25 00:13:00,60.4,56.8,30.28,West,270,0.0,0.0,88,0.00,,,0.00,meteohub,2017-05-24 23:13:00,
2017-05-25 00:18:00,60.3,56.7,30.28,West,270,0.0,0.0,88,0.00,,,0.00,meteohub,2017-05-24 23:18:00,
2017-05-25 00:24:00,60.1,56.5,30.28,West,270,0.0,0.0,88,0.00,,,0.00,meteohub,2017-05-24 23:24:00,
2017-05-25 00:29:00,60.1,56.5,30.28,West,270,0.0,0.0,88,0.00,,,0.00,meteohub,2017-05-24 23:29:00,
2017-05-25 00:34:00,60.1,56.5,30.28,West,270,0.0,0.0,88,0.00,,,0.00,meteohub,2017-05-24 23:34:00,
2017-05-25 00:39:00,59.9,56.7,30.28,West,270,5.0,0.0,89,0.00,,,0.00,meteohub,2017-05-24 23:39:00,
2017-05-25 00:44:00,60.1,56.8,30.28,WSW,248,4.0,4.0,89,0.00,,,0.00,meteohub,2017-05-24 23:44:00,
2017-05-25 00:49:00,60.1,56.8,30.28,West,270,4.0,5.0,89,0.00,,,0.00,meteohub,2017-05-24 23:49:00,
2017-05-25 00:54:00,60.1,57.2,30.28,WNW,292,0.0,5.0,90,0.00,,,0.00,meteohub,2017-05-24 23:54:00,
2017-05-25 00:59:00,60.1,57.2,30.28,WNW,292,0.0,5.0,90,0.00,,,0.00,meteohub,2017-05-24 23:59:00,
2017-05-25 01:05:00,59.9,57.0,30.28,West,270,0.0,5.0,90,0.00,,,0.00,meteohub,2017-05-25 00:05:00,
2017-05-25 01:15:00,59.9,57.0,30.28,West,270,2.0,3.0,90,0.00,,,0.00,meteohub,2017-05-25 00:15:00,
2017-05-25 01:20:00,59.7,56.8,30.28,West,270,0.0,2.0,90,0.00,,,0.00,meteohub,2017-05-25 00:20:00,
2017-05-25 01:25:00,59.7,56.8,30.28,West,270,1.0,2.0,90,0.00,,,0.00,meteohub,2017-05-25 00:25:00,
2017-05-25 01:30:00,59.7,56.8,30.28,SW,225,0.0,2.0,90,0.00,,,0.00,meteohub,2017-05-25 00:30:00,
2017-05-25 01:35:00,59.7,57.0,30.28,SW,225,0.0,3.0,91,0.00,,,0.00,meteohub,2017-05-25 00:35:00,
2017-05-25 01:40:00,59.7,57.0,30.28,SE,135,0.0,3.0,91,0.00,,,0.00,meteohub,2017-05-25 00:40:00,
2017-05-25 01:45:00,59.7,57.0,30.28,SE,135,0.0,0.0,91,0.00,,,0.00,meteohub,2017-05-25 00:45:00,
2017-05-25 01:50:00,59.7,57.0,30.28,SSE,158,0.0,0.0,91,0.00,,,0.00,meteohub,2017-05-25 00:50:00,
2017-05-25 01:56:00,59.7,57.0,30.28,SW,225,0.0,0.0,91,0.00,,,0.00,meteohub,2017-05-25 00:56:00,
2017-05-25 02:01:00,59.7,57.0,30.28,SW,225,0.0,0.0,91,0.00,,,0.00,meteohub,2017-05-25 01:01:00,
2017-05-25 02:06:00,59.7,57.0,30.28,SW,225,0.0,0.0,91,0.00,,,0.00,meteohub,2017-05-25 01:06:00,
2017-05-25 02:11:00,59.7,57.0,30.28,SW,225,0.0,0.0,91,0.00,,,0.00,meteohub,2017-05-25 01:11:00,
2017-05-25 02:16:00,59.5,56.8,30.28,SW,225,0.0,0.0,91,0.00,,,0.00,meteohub,2017-05-25 01:16:00,
2017-05-25 02:26:00,59.5,57.2,30.28,SW,225,0.0,0.0,92,0.00,,,0.00,meteohub,2017-05-25 01:26:00,
2017-05-25 02:31:00,59.5,57.2,30.28,SW,225,0.0,0.0,92,0.00,,,0.00,meteohub,2017-05-25 01:31:00,
2017-05-25 02:36:00,59.5,57.2,30.28,SW,225,0.0,0.0,92,0.00,,,0.00,meteohub,2017-05-25 01:36:00,
2017-05-25 02:41:00,59.5,57.2,30.28,SW,225,0.0,0.0,92,0.00,,,0.00,meteohub,2017-05-25 01:41:00,
2017-05-25 02:46:00,59.5,57.2,30.28,SW,225,0.0,0.0,92,0.00,,,0.00,meteohub,2017-05-25 01:46:00,
2017-05-25 02:52:00,59.5,57.2,30.28,SW,225,0.0,0.0,92,0.00,,,0.00,meteohub,2017-05-25 01:52:00,
2017-05-25 02:57:00,59.5,57.2,30.28,SW,225,0.0,0.0,92,0.00,,,0.00,meteohub,2017-05-25 01:57:00,
2017-05-25 03:02:00,59.5,57.2,30.28,SW,225,0.0,0.0,92,0.00,,,0.00,meteohub,2017-05-25 02:02:00,
2017-05-25 03:07:00,59.5,57.2,30.28,SW,225,0.0,1.0,92,0.00,,,0.00,meteohub,2017-05-25 02:07:00,
2017-05-25 03:12:00,59.5,57.2,30.28,SW,225,0.0,1.0,92,0.00,,,0.00,meteohub,2017-05-25 02:12:00,
2017-05-25 03:17:00,59.5,57.2,30.28,SW,225,0.0,1.0,92,0.00,,,0.00,meteohub,2017-05-25 02:17:00,
2017-05-25 03:22:00,59.5,57.2,30.28,SW,225,0.0,0.0,92,0.00,,,0.00,meteohub,2017-05-25 02:22:00,
2017-05-25 03:27:00,59.4,57.0,30.28,SW,225,0.0,0.0,92,0.00,,,0.00,meteohub,2017-05-25 02:27:00,
2017-05-25 03:32:00,59.4,57.0,30.28,SW,225,0.0,0.0,92,0.00,,,0.00,meteohub,2017-05-25 02:32:00,
2017-05-25 03:37:00,59.4,57.0,30.28,SW,225,1.0,0.0,92,0.00,,,0.00,meteohub,2017-05-25 02:37:00,
2017-05-25 03:42:00,59.4,57.0,30.28,SW,225,0.0,2.0,92,0.00,,,0.00,meteohub,2017-05-25 02:42:00,
2017-05-25 03:47:00,59.4,57.0,30.28,SW,225,0.0,2.0,92,0.00,,,0.00,meteohub,2017-05-25 02:47:00,
2017-05-25 03:53:00,59.4,57.0,30.28,SW,225,0.0,2.0,92,0.00,,,0.00,meteohub,2017-05-25 02:53:00,
2017-05-25 03:58:00,59.4,57.0,30.28,SW,225,0.0,1.0,92,0.00,,,0.00,meteohub,2017-05-25 02:58:00,
2017-05-25 04:03:00,59.4,57.0,30.28,WSW,248,0.0,4.0,92,0.00,,,0.00,meteohub,2017-05-25 03:03:00,
2017-05-25 04:08:00,59.4,57.0,30.28,West,270,0.0,4.0,92,0.00,,,0.00,meteohub,2017-05-25 03:08:00,
2017-05-25 04:13:00,59.4,57.0,30.28,West,270,0.0,4.0,92,0.00,,,0.00,meteohub,2017-05-25 03:13:00,
2017-05-25 04:18:00,59.2,56.8,30.28,West,270,3.0,3.0,92,0.00,,,0.00,meteohub,2017-05-25 03:18:00,
2017-05-25 04:23:00,59.2,56.8,30.28,West,270,3.0,3.0,92,0.00,,,0.00,meteohub,2017-05-25 03:23:00,
2017-05-25 04:28:00,59.2,56.8,30.28,West,270,3.0,3.0,92,0.00,,,0.00,meteohub,2017-05-25 03:28:00,
2017-05-25 04:34:00,59.2,56.8,30.28,West,270,3.0,3.0,92,0.00,,,0.00,meteohub,2017-05-25 03:34:00,
2017-05-25 04:39:00,59.2,57.2,30.25,West,270,0.0,3.0,93,0.00,,,0.00,meteohub,2017-05-25 03:39:00,
2017-05-25 04:44:00,59.2,57.2,30.25,West,270,0.0,3.0,93,0.00,,,0.00,meteohub,2017-05-25 03:44:00,
2017-05-25 04:49:00,59.2,57.2,30.25,WNW,292,2.0,3.0,93,0.00,,,0.00,meteohub,2017-05-25 03:49:00,
2017-05-25 04:54:00,59.2,57.2,30.28,WNW,292,0.0,2.0,93,0.00,,,0.00,meteohub,2017-05-25 03:54:00,
2017-05-25 04:59:00,59.2,57.2,30.28,WNW,292,0.0,2.0,93,0.00,,,0.00,meteohub,2017-05-25 03:59:00,
2017-05-25 05:04:00,59.2,57.2,30.28,WNW,292,0.0,2.0,93,0.00,,,0.00,meteohub,2017-05-25 04:04:00,
2017-05-25 05:09:00,59.2,57.2,30.25,WNW,292,3.0,0.0,93,0.00,,,0.00,meteohub,2017-05-25 04:09:00,
2017-05-25 05:14:00,59.2,57.2,30.25,WNW,292,0.0,3.0,93,0.00,,,0.00,meteohub,2017-05-25 04:14:00,
2017-05-25 05:20:00,59.2,57.2,30.25,WNW,292,2.0,3.0,93,0.00,,,0.00,meteohub,2017-05-25 04:20:00,
2017-05-25 05:25:00,59.2,57.2,30.25,WNW,292,0.0,3.0,93,0.00,,,0.00,meteohub,2017-05-25 04:25:00,
2017-05-25 05:30:00,59.2,57.2,30.25,WNW,292,1.0,3.0,93,0.00,,,0.00,meteohub,2017-05-25 04:30:00,
2017-05-25 05:35:00,59.2,57.2,30.25,WNW,292,2.0,3.0,93,0.00,,,0.00,meteohub,2017-05-25 04:35:00,
2017-05-25 05:41:00,59.2,57.2,30.25,WNW,292,0.0,3.0,93,0.00,,,0.00,meteohub,2017-05-25 04:41:00,
2017-05-25 05:46:00,59.2,57.2,30.25,WNW,292,0.0,2.0,93,0.00,,,0.00,meteohub,2017-05-25 04:46:00,
2017-05-25 05:51:00,59.4,57.6,30.25,WNW,292,0.0,2.0,94,0.00,,,0.00,meteohub,2017-05-25 04:51:00,
2017-05-25 05:56:00,59.4,57.6,30.25,WNW,292,0.0,1.0,94,0.00,,,0.00,meteohub,2017-05-25 04:56:00,
2017-05-25 06:01:00,59.4,57.6,30.25,WNW,292,0.0,1.0,94,0.00,,,0.00,meteohub,2017-05-25 05:01:00,
2017-05-25 06:06:00,59.5,57.7,30.25,North,0,4.0,4.0,94,0.00,,,0.00,meteohub,2017-05-25 05:06:00,
2017-05-25 06:11:00,59.5,57.7,30.25,North,0,4.0,4.0,94,0.00,,,0.00,meteohub,2017-05-25 05:11:00,
2017-05-25 06:16:00,59.7,57.9,30.25,NNE,22,3.0,4.0,94,0.00,,,0.00,meteohub,2017-05-25 05:16:00,
2017-05-25 06:21:00,59.7,57.9,30.25,North,0,3.0,4.0,94,0.00,,,0.00,meteohub,2017-05-25 05:21:00,
2017-05-25 06:27:00,59.9,58.1,30.25,North,0,2.0,4.0,94,0.00,,,0.00,meteohub,2017-05-25 05:27:00,
2017-05-25 06:32:00,60.1,58.3,30.25,North,0,0.0,4.0,94,0.00,,,0.00,meteohub,2017-05-25 05:32:00,
2017-05-25 06:37:00,60.1,58.3,30.25,North,0,0.0,3.0,94,0.00,,,0.00,meteohub,2017-05-25 05:37:00,
2017-05-25 06:42:00,60.1,58.3,30.25,NNW,338,0.0,2.0,94,0.00,,,0.00,meteohub,2017-05-25 05:42:00,
2017-05-25 06:47:00,60.3,58.5,30.25,NNW,338,0.0,2.0,94,0.00,,,0.00,meteohub,2017-05-25 05:47:00,
2017-05-25 06:52:00,60.4,58.6,30.25,WNW,292,0.0,2.0,94,0.00,,,0.00,meteohub,2017-05-25 05:52:00,
2017-05-25 06:57:00,60.6,58.8,30.25,West,270,3.0,3.0,94,0.00,,,0.00,meteohub,2017-05-25 05:57:00,
2017-05-25 07:02:00,60.8,58.8,30.25,West,270,2.0,3.0,93,0.00,,,0.00,meteohub,2017-05-25 06:02:00,